Time;durP1;ratioP1;P1;durP2;ratioP2;P2;SDS_P1;SDS_P2;PMS_P1;PMS_P2;Temp;Humidity;BMP_temperature;BMP_pressure;BME280_temperature;BME280_humidity;BME280_pressure;Samples;Min_cycle;Max_cycle;Signal;HPM_P1;HPM_P2
2021/04/23 00:01:07;;;;;;;;;;;;;;;17.60;28.01;100561.25;5330065;26;34013;-93
2021/04/23 00:03:47;;;;;;;;;;;;;;;18.28;27.04;100560.66;5311571;26;34123;-93
2021/04/23 00:06:21;;;;;;;;;;;;;;;18.45;26.84;100554.53;5312298;26;33914;-95
2021/04/23 00:08:49;;;;;;;;;;;;;;;18.46;26.88;100562.34;5311701;26;31945;-91
2021/04/23 00:11:19;;;;;;;;;;;;;;;18.11;27.39;100561.47;5312562;26;32899;-92
2021/04/23 00:13:48;;;;;;;;;;;;;;;17.87;27.95;100565.22;5312168;26;33138;-93
2021/04/23 00:16:16;;;;;;;;;;;;;;;18.30;27.37;100561.44;5312387;26;33356;-91
2021/04/23 00:18:44;;;;;;;;;;;;;;;18.31;27.12;100568.44;5311411;26;32528;-93
2021/04/23 00:21:18;;;;;;;;;;;;;;;18.07;27.13;100570.47;5312100;26;33782;-93
2021/04/23 00:23:45;;;;;;;;;;;;;;;18.70;26.30;100570.78;5330879;26;34157;-95
2021/04/23 00:26:13;;;;;;;;;;;;;;;18.41;26.65;100574.09;5312082;26;33219;-90
2021/04/23 00:28:41;;;;;;;;;;;;;;;18.53;26.55;100576.09;5312285;26;32094;-90
2021/04/23 00:31:10;;;;;;;;;;;;;;;18.15;26.36;100574.44;5313383;26;33270;-91
2021/04/23 00:33:39;;;;;;;;;;;;;;;18.31;26.15;100573.69;5321329;26;32744;-92
2021/04/23 00:36:07;;;;;;;;;;;;;;;17.90;26.82;100579.19;5320422;26;33911;-93
2021/04/23 00:38:34;;;;;;;;;;;;;;;17.97;26.46;100570.06;5318087;26;32799;-91
2021/04/23 00:41:03;;;;;;;;;;;;;;;17.53;26.94;100565.97;5331377;26;34047;-90
2021/04/23 00:43:31;;;;;;;;;;;;;;;18.21;25.83;100559.25;5331924;26;34481;-90
2021/04/23 00:46:07;;;;;;;;;;;;;;;17.77;26.15;100563.09;5315049;26;33919;-91
2021/04/23 00:48:36;;;;;;;;;;;;;;;18.03;25.65;100557.44;5293156;26;32242;-94
2021/04/23 00:51:06;;;;;;;;;;;;;;;17.96;25.62;100574.50;5329695;26;32831;-93
2021/04/23 00:53:37;;;;;;;;;;;;;;;17.84;25.71;100572.41;5312654;26;33580;-93
2021/04/23 00:56:07;;;;;;;;;;;;;;;17.70;25.69;100568.66;5311958;26;32769;-94
2021/04/23 00:58:35;;;;;;;;;;;;;;;17.82;25.49;100569.84;5311496;26;32116;-93
2021/04/23 01:01:06;;;;;;;;;;;;;;;17.73;25.57;100567.66;5310958;26;34293;-93
2021/04/23 01:03:39;;;;;;;;;;;;;;;17.75;25.45;100563.19;5330399;26;32926;-91
2021/04/23 01:06:11;;;;;;;;;;;;;;;17.94;24.85;100565.81;5311446;26;33090;-95
2021/04/23 01:08:40;;;;;;;;;;;;;;;17.60;25.15;100582.34;5312157;26;33065;-95
2021/04/23 01:11:08;;;;;;;;;;;;;;;17.89;24.79;100583.59;5329587;26;32924;-94
2021/04/23 01:13:37;;;;;;;;;;;;;;;17.65;25.18;100588.25;5311752;26;32708;-92
2021/04/23 01:16:05;;;;;;;;;;;;;;;17.77;24.97;100574.50;5311145;26;32646;-90
2021/04/23 01:18:34;;;;;;;;;;;;;;;17.82;24.76;100575.13;5311553;26;32769;-90
2021/04/23 01:21:15;;;;;;;;;;;;;;;17.26;25.63;100571.59;5311711;26;33086;-91
2021/04/23 01:23:50;;;;;;;;;;;;;;;17.40;25.55;100580.63;5330432;26;33212;-94
2021/04/23 01:26:19;;;;;;;;;;;;;;;17.60;25.18;100572.66;5329783;26;33787;-92
2021/04/23 01:28:47;;;;;;;;;;;;;;;17.74;25.09;100565.91;5311589;26;31862;-93
2021/04/23 01:31:17;;;;;;;;;;;;;;;17.27;25.77;100569.81;5311966;26;32714;-93
2021/04/23 01:33:46;;;;;;;;;;;;;;;16.96;26.28;100576.44;5329676;26;33267;-93
2021/04/23 01:36:14;;;;;;;;;;;;;;;16.83;26.48;100571.72;5311708;26;32947;-93
2021/04/23 01:38:43;;;;;;;;;;;;;;;17.33;25.73;100569.53;5311618;26;32060;-90
2021/04/23 01:41:12;;;;;;;;;;;;;;;17.26;25.86;100571.59;5311996;26;32447;-91
2021/04/23 01:43:40;;;;;;;;;;;;;;;16.84;26.32;100569.91;5329491;26;33140;-90
2021/04/23 01:46:08;;;;;;;;;;;;;;;16.76;26.40;100572.87;5311576;26;32855;-95
2021/04/23 01:48:35;;;;;;;;;;;;;;;16.70;26.23;100573.16;5312240;26;32025;-94
2021/04/23 01:51:05;;;;;;;;;;;;;;;16.74;26.08;100566.84;5312270;26;32404;-94
2021/04/23 01:53:33;;;;;;;;;;;;;;;16.55;26.08;100577.28;5294083;26;33431;-94
2021/04/23 01:56:00;;;;;;;;;;;;;;;16.29;26.42;100578.41;5312054;26;32858;-92
2021/04/23 01:58:27;;;;;;;;;;;;;;;16.31;26.29;100574.78;5329627;26;31840;-93
2021/04/23 02:00:55;;;;;;;;;;;;;;;16.30;26.19;100578.34;5311737;26;32974;-94
2021/04/23 02:03:24;;;;;;;;;;;;;;;16.56;25.77;100579.00;5312014;26;33007;-94
2021/04/23 02:05:53;;;;;;;;;;;;;;;16.21;26.16;100573.44;5312185;26;32491;-95
2021/04/23 02:08:22;;;;;;;;;;;;;;;16.65;25.57;100577.78;5312704;26;31886;-93
2021/04/23 02:10:51;;;;;;;;;;;;;;;16.13;26.12;100573.75;5311825;26;33006;-94
2021/04/23 02:13:19;;;;;;;;;;;;;;;16.31;25.90;100576.53;5312292;26;33027;-93
2021/04/23 02:15:47;;;;;;;;;;;;;;;16.06;26.35;100574.06;5312271;26;32812;-92
2021/04/23 02:18:15;;;;;;;;;;;;;;;16.35;26.03;100578.12;5330878;26;33036;-92
2021/04/23 02:20:43;;;;;;;;;;;;;;;16.14;26.37;100579.87;5311814;26;33085;-94
2021/04/23 02:23:12;;;;;;;;;;;;;;;16.09;26.47;100589.72;5312753;26;32908;-94
2021/04/23 02:25:39;;;;;;;;;;;;;;;15.90;26.73;100593.09;5317544;26;32672;-93
2021/04/23 02:28:08;;;;;;;;;;;;;;;16.40;26.09;100596.37;5317216;26;31813;-93
2021/04/23 02:30:39;;;;;;;;;;;;;;;16.14;26.51;100596.50;5333084;26;32596;-93
2021/04/23 02:33:07;;;;;;;;;;;;;;;16.12;26.57;100597.50;5312932;26;33028;-90
2021/04/23 02:35:34;;;;;;;;;;;;;;;15.63;27.30;100585.31;5311947;26;33091;-93
2021/04/23 02:38:03;;;;;;;;;;;;;;;16.01;26.73;100598.78;5330955;26;33141;-93
2021/04/23 02:40:31;;;;;;;;;;;;;;;16.04;26.76;100600.41;5312097;26;33825;-93
2021/04/23 02:42:59;;;;;;;;;;;;;;;15.94;26.93;100594.69;5330420;26;32998;-92
2021/04/23 02:45:29;;;;;;;;;;;;;;;15.62;27.33;100591.50;5311624;26;32804;-92
2021/04/23 02:47:56;;;;;;;;;;;;;;;15.42;27.90;100599.28;5312074;26;33405;-90
2021/04/23 02:50:24;;;;;;;;;;;;;;;15.62;27.65;100596.75;5348720;26;34024;-94
2021/04/23 02:52:52;;;;;;;;;;;;;;;15.33;27.99;100597.88;5310976;26;34437;-93
2021/04/23 02:55:19;;;;;;;;;;;;;;;15.05;28.51;100604.13;5329063;26;33961;-92
2021/04/23 02:57:55;;;;;;;;;;;;;;;15.54;27.98;100606.69;5329025;26;32464;-93
2021/04/23 03:00:24;;;;;;;;;;;;;;;15.32;28.38;100597.00;5312555;26;33098;-94
2021/04/23 03:02:51;;;;;;;;;;;;;;;15.05;28.81;100592.75;5312198;26;33076;-92
2021/04/23 03:05:20;;;;;;;;;;;;;;;15.35;28.40;100599.50;5311762;26;32887;-93
2021/04/23 03:07:49;;;;;;;;;;;;;;;15.40;28.34;100601.12;5331045;26;32180;-92
2021/04/23 03:10:17;;;;;;;;;;;;;;;15.20;28.76;100594.81;5312416;26;33170;-93
2021/04/23 03:12:45;;;;;;;;;;;;;;;15.44;28.54;100595.69;5312175;26;33596;-93
2021/04/23 03:15:14;;;;;;;;;;;;;;;13.68;31.35;100594.56;5329953;26;33559;-90
2021/04/23 03:17:42;;;;;;;;;;;;;;;14.57;30.05;100602.25;5315697;26;32981;-93
2021/04/23 03:26:53;;;;;;;;;;;;;;;14.48;30.45;100611.28;5320664;26;19972;-91
2021/04/23 03:29:23;;;;;;;;;;;;;;;14.85;29.89;100616.16;5306643;26;32451;-91
2021/04/23 03:31:51;;;;;;;;;;;;;;;14.93;29.71;100610.66;5289056;26;32930;-92
2021/04/23 03:34:18;;;;;;;;;;;;;;;14.77;29.95;100619.94;5290117;26;33885;-91
2021/04/23 03:36:46;;;;;;;;;;;;;;;15.20;29.37;100618.44;5296485;26;32956;-91
2021/04/23 03:39:13;;;;;;;;;;;;;;;14.98;29.72;100624.47;5290620;26;32941;-92
2021/04/23 03:41:42;;;;;;;;;;;;;;;15.12;29.47;100620.50;5289396;26;33417;-91
2021/04/23 03:44:11;;;;;;;;;;;;;;;14.81;29.94;100619.81;5289584;26;33029;-91
2021/04/23 03:46:38;;;;;;;;;;;;;;;15.28;29.33;100626.06;5311776;26;32565;-89
2021/04/23 03:49:10;;;;;;;;;;;;;;;14.97;29.86;100633.25;5332987;26;32378;-90
2021/04/23 03:51:38;;;;;;;;;;;;;;;15.14;29.57;100631.78;5330412;26;33056;-91
2021/04/23 03:54:05;;;;;;;;;;;;;;;15.13;29.52;100635.31;5329676;26;32866;-91
2021/04/23 03:56:33;;;;;;;;;;;;;;;15.60;28.87;100640.59;5329503;26;33251;-91
2021/04/23 03:59:01;;;;;;;;;;;;;;;14.79;30.35;100647.00;5329607;26;33234;-92
2021/04/23 04:01:30;;;;;;;;;;;;;;;15.42;29.09;100650.00;5328596;26;32912;-91
2021/04/23 04:03:59;;;;;;;;;;;;;;;15.18;29.46;100655.25;5311003;26;33018;-92
2021/04/23 04:06:26;;;;;;;;;;;;;;;14.95;29.81;100656.03;5310779;26;32429;-92
2021/04/23 04:08:54;;;;;;;;;;;;;;;15.51;28.96;100661.97;5310537;26;32644;-92
2021/04/23 04:11:22;;;;;;;;;;;;;;;15.66;28.65;100671.91;5328555;26;32905;-91
2021/04/23 04:13:50;;;;;;;;;;;;;;;15.26;29.32;100670.72;5328584;26;33890;-91
2021/04/23 04:16:17;;;;;;;;;;;;;;;15.71;28.62;100674.34;5328781;26;33831;-91
2021/04/23 04:18:46;;;;;;;;;;;;;;;15.49;29.07;100675.16;5292419;26;32321;-90
2021/04/23 04:21:15;;;;;;;;;;;;;;;15.45;29.00;100677.94;5329341;26;32810;-91
2021/04/23 04:23:43;;;;;;;;;;;;;;;15.92;28.22;100683.22;5329175;26;33353;-92
2021/04/23 04:26:10;;;;;;;;;;;;;;;14.82;29.71;100684.50;5329160;26;32606;-91
2021/04/23 04:28:37;;;;;;;;;;;;;;;15.75;28.43;100681.19;5329392;26;34021;-91
2021/04/23 04:31:04;;;;;;;;;;;;;;;15.77;28.28;100684.63;5328482;26;34539;-91
2021/04/23 04:33:46;;;;;;;;;;;;;;;16.15;27.59;100698.13;5331102;26;33176;-91
2021/04/23 04:36:13;;;;;;;;;;;;;;;16.29;27.48;100704.63;5328868;26;33428;-91
2021/04/23 04:38:40;;;;;;;;;;;;;;;16.30;27.55;100707.19;5328494;26;32119;-91
2021/04/23 04:41:10;;;;;;;;;;;;;;;16.16;27.91;100712.97;5328479;26;32995;-91
2021/04/23 04:43:37;;;;;;;;;;;;;;;15.40;29.16;100711.41;5328330;26;33262;-91
2021/04/23 04:46:04;;;;;;;;;;;;;;;15.31;29.16;100717.81;5328230;26;32724;-91
2021/04/23 04:48:31;;;;;;;;;;;;;;;15.47;29.11;100724.22;5310122;26;32617;-91
2021/04/23 04:50:59;;;;;;;;;;;;;;;16.00;28.36;100727.63;5328195;26;32736;-91
2021/04/23 04:53:26;;;;;;;;;;;;;;;16.03;28.19;100730.12;5310239;26;32726;-92
2021/04/23 04:55:56;;;;;;;;;;;;;;;16.47;27.54;100726.69;5310140;26;33072;-91
2021/04/23 04:58:26;;;;;;;;;;;;;;;15.80;28.68;100730.97;5314488;26;31982;-90
2021/04/23 05:00:54;;;;;;;;;;;;;;;15.77;28.55;100731.06;5333750;26;32782;-92
2021/04/23 05:03:21;;;;;;;;;;;;;;;16.08;28.14;100730.81;5333459;26;32772;-92
2021/04/23 05:05:49;;;;;;;;;;;;;;;15.95;28.23;100738.28;5349507;26;34042;-93
2021/04/23 05:08:16;;;;;;;;;;;;;;;15.62;28.88;100737.72;5338040;26;32482;-91
2021/04/23 05:10:44;;;;;;;;;;;;;;;16.20;28.19;100747.88;5319414;26;33402;-91
2021/04/23 05:13:12;;;;;;;;;;;;;;;15.70;28.89;100744.44;5316745;26;33050;-92
2021/04/23 05:15:40;;;;;;;;;;;;;;;15.59;29.08;100757.09;5316156;26;32468;-91
2021/04/23 05:18:09;;;;;;;;;;;;;;;15.17;29.84;100760.28;5333352;26;32463;-91
2021/04/23 05:20:37;;;;;;;;;;;;;;;15.73;29.00;100769.75;5328038;26;32943;-90
2021/04/23 05:23:05;;;;;;;;;;;;;;;15.75;28.95;100767.91;5328028;26;33074;-94
2021/04/23 05:25:33;;;;;;;;;;;;;;;15.34;29.50;100776.34;5328226;26;32923;-91
2021/04/23 05:28:02;;;;;;;;;;;;;;;15.53;29.32;100781.81;5327516;26;33021;-91
2021/04/23 05:30:30;;;;;;;;;;;;;;;15.34;29.51;100775.47;5345558;26;34329;-89
2021/04/23 05:32:58;;;;;;;;;;;;;;;16.47;28.15;100779.28;5345757;26;33767;-89
2021/04/23 05:35:28;;;;;;;;;;;;;;;16.10;28.44;100781.56;5327827;26;33824;-91
2021/04/23 05:37:58;;;;;;;;;;;;;;;16.14;28.36;100788.41;5328435;26;32444;-90
2021/04/23 05:40:27;;;;;;;;;;;;;;;16.73;27.02;100783.53;5309448;26;33100;-93
2021/04/23 05:42:54;;;;;;;;;;;;;;;16.86;27.07;100790.00;5326787;26;33508;-91
2021/04/23 05:45:22;;;;;;;;;;;;;;;16.35;27.91;100786.75;5327313;26;33684;-91
2021/04/23 05:47:51;;;;;;;;;;;;;;;16.48;27.90;100791.53;5326851;26;32481;-90
2021/04/23 05:50:20;;;;;;;;;;;;;;;16.12;28.01;100789.37;5326873;26;33938;-92
2021/04/23 05:52:49;;;;;;;;;;;;;;;16.73;27.18;100783.53;5327154;26;32853;-89
2021/04/23 05:55:18;;;;;;;;;;;;;;;15.66;28.20;100790.13;5346859;26;34407;-91
2021/04/23 05:57:45;;;;;;;;;;;;;;;16.67;27.33;100794.28;5308719;26;32231;-91
2021/04/23 06:00:16;;;;;;;;;;;;;;;16.60;27.62;100795.47;5326392;26;33129;-91
2021/04/23 06:03:00;;;;;;;;;;;;;;;16.70;27.43;100799.44;5328041;26;33059;-90
2021/04/23 06:05:30;;;;;;;;;;;;;;;16.66;27.36;100800.50;5327773;26;32900;-93
2021/04/23 06:08:00;;;;;;;;;;;;;;;16.59;27.49;100797.22;5328599;26;32454;-93
2021/04/23 06:10:28;;;;;;;;;;;;;;;15.80;29.18;100802.78;5327222;26;34044;-91
2021/04/23 06:12:56;;;;;;;;;;;;;;;16.52;27.84;100796.59;5327622;26;33401;-92
2021/04/23 06:15:24;;;;;;;;;;;;;;;16.47;26.52;100792.44;5327468;26;35215;-94
2021/04/23 06:17:53;;;;;;;;;;;;;;;16.13;26.80;100801.62;5327341;26;32853;-93
2021/04/23 06:20:22;;;;;;;;;;;;;;;16.27;26.81;100794.06;5327627;26;33935;-92
2021/04/23 06:22:51;;;;;;;;;;;;;;;16.19;26.73;100806.63;5346871;26;35007;-94
2021/04/23 06:25:19;;;;;;;;;;;;;;;15.74;27.41;100807.38;5327542;26;33384;-92
2021/04/23 06:27:47;;;;;;;;;;;;;;;15.28;27.98;100807.19;5327345;26;32356;-92
2021/04/23 06:30:17;;;;;;;;;;;;;;;15.90;27.04;100816.47;5333824;26;32978;-91
2021/04/23 06:32:46;;;;;;;;;;;;;;;15.26;28.16;100817.72;5334584;26;33165;-93
2021/04/23 06:35:15;;;;;;;;;;;;;;;15.93;27.45;100824.22;5332534;26;33306;-94
2021/04/23 06:37:43;;;;;;;;;;;;;;;16.83;26.71;100828.75;5331698;26;31827;-93
2021/04/23 06:40:18;;;;;;;;;;;;;;;16.47;27.07;100826.63;5330358;26;33089;-92
2021/04/23 06:42:50;;;;;;;;;;;;;;;16.31;27.31;100831.62;5311303;26;33959;-94
2021/04/23 06:45:19;;;;;;;;;;;;;;;16.66;26.53;100838.16;5327678;26;33091;-93
2021/04/23 06:47:46;;;;;;;;;;;;;;;17.35;25.82;100831.94;5331237;26;32007;-90
2021/04/23 06:50:16;;;;;;;;;;;;;;;16.44;27.13;100835.50;5334194;26;32402;-88
2021/04/23 06:52:44;;;;;;;;;;;;;;;15.85;27.94;100832.38;5333949;26;33204;-93
2021/04/23 06:55:12;;;;;;;;;;;;;;;16.73;26.89;100838.78;5312723;26;33694;-93
2021/04/23 06:57:40;;;;;;;;;;;;;;;16.61;26.98;100848.00;5330793;26;32043;-94
2021/04/23 07:00:14;;;;;;;;;;;;;;;17.30;26.17;100847.06;5349110;26;34717;-94
2021/04/23 07:02:42;;;;;;;;;;;;;;;17.12;26.23;100839.91;5336895;26;32971;-94
2021/04/23 07:05:29;;;;;;;;;;;;;;;17.40;25.51;100844.06;5338766;26;33030;-94
2021/04/23 07:08:17;;;;;;;;;;;;;;;17.83;25.12;100850.13;5338785;26;31611;-94
2021/04/23 07:11:10;;;;;;;;;;;;;;;18.16;25.05;100853.09;5318309;26;33398;-94
2021/04/23 07:14:07;;;;;;;;;;;;;;;17.95;25.30;100856.66;5341500;26;32832;-94
2021/04/23 07:20:47;;;;;;;;;;;;;;;17.90;25.36;100859.47;5321862;26;20445;-86
2021/04/23 07:24:04;;;;;;;;;;;;;;;17.99;25.61;100867.00;5309059;27;33872;-85
2021/04/23 07:31:13;;;;;;;;;;;;;;;18.09;24.88;100875.38;5309004;27;32718;-85
2021/04/23 07:33:57;;;;;;;;;;;;;;;17.53;25.83;100871.59;5286199;27;32058;-84
2021/04/23 07:37:16;;;;;;;;;;;;;;;18.05;25.16;100868.53;5265105;27;34455;-87
2021/04/23 07:39:55;;;;;;;;;;;;;;;18.09;24.79;100874.53;5349984;26;34237;-88
2021/04/23 07:46:28;;;;;;;;;;;;;;;18.20;24.29;100877.53;5276852;26;34022;-85
2021/04/23 08:00:10;;;;;;;;;;;;;;;18.23;24.52;100874.75;5167847;27;34019;-88
2021/04/23 08:37:48;;;;;;;;;;;;;;;19.88;21.60;100892.47;5065144;28;34197;-86
2021/04/23 09:01:17;;;;;;;;;;;;;;;20.30;20.24;100891.16;5281773;27;34341;-87
2021/04/23 09:05:12;;;;;;;;;;;;;;;20.29;19.81;100891.22;5197613;27;34511;-88
2021/04/23 09:12:10;;;;;;;;;;;;;;;20.12;20.33;100885.03;5241333;27;34294;-88
2021/04/23 09:16:16;;;;;;;;;;;;;;;;;;;;;
2021/04/23 09:23:48;;;;;;;;;;;;;;;20.88;18.77;100866.88;5174599;27;34981;-88
2021/04/23 09:34:49;;;;;;;;;;;;;;;21.28;18.38;100862.78;5081650;27;35476;-87
2021/04/23 09:41:43;;;;;;;;;;;;;;;22.45;17.99;100851.44;5092115;28;33469;-88
2021/04/23 10:02:06;;;;;;;;;;;;;;;23.25;17.07;100850.75;5355848;26;973437;-94
2021/04/23 10:04:35;;;;;;;;;;;;;;;23.25;17.07;100850.75;5385456;26;32717;-94
2021/04/23 10:07:14;;;;;;;;;;;;;;;22.32;17.84;100841.56;5384868;26;32705;-93
2021/04/23 10:09:48;;;;;;;;;;;;;;;23.31;17.17;100851.19;5404619;26;34642;-93
2021/04/23 10:12:28;;;;;;;;;;;;;;;22.63;17.65;100847.59;5404561;26;33253;-92
2021/04/23 10:14:57;;;;;;;;;;;;;;;23.43;16.69;100846.84;5401016;26;31824;-93
2021/04/23 10:17:25;;;;;;;;;;;;;;;23.41;16.79;100840.78;5401386;26;33093;-92
2021/04/23 10:19:53;;;;;;;;;;;;;;;23.45;17.23;100846.75;5405046;26;34326;-92
2021/04/23 10:22:22;;;;;;;;;;;;;;;22.32;18.37;100840.69;5388394;26;32416;-91
2021/04/23 10:24:50;;;;;;;;;;;;;;;23.10;17.17;100834.81;5423872;26;34345;-92
2021/04/23 10:27:18;;;;;;;;;;;;;;;23.00;16.71;100831.94;5399018;26;33541;-93
2021/04/23 10:29:48;;;;;;;;;;;;;;;23.40;16.82;100828.47;5380102;26;33020;-92
2021/04/23 10:32:16;;;;;;;;;;;;;;;22.90;17.21;100830.00;5380443;26;32822;-92
2021/04/23 10:34:43;;;;;;;;;;;;;;;23.25;17.11;100827.66;5379895;26;32271;-93
2021/04/23 10:37:11;;;;;;;;;;;;;;;23.54;15.90;100827.50;5381703;26;33107;-93
2021/04/23 10:39:40;;;;;;;;;;;;;;;24.05;16.22;100817.84;5383325;26;33154;-91
2021/04/23 10:42:28;;;;;;;;;;;;;;;23.47;16.73;100820.91;5405256;26;32988;-92
2021/04/23 10:45:00;;;;;;;;;;;;;;;23.56;16.51;100828.25;5404589;26;32755;-93
2021/04/23 10:47:34;;;;;;;;;;;;;;;23.71;16.14;100823.69;5382017;26;34113;-92
2021/04/23 10:50:06;;;;;;;;;;;;;;;22.66;17.76;100822.66;5354832;26;33267;-92
2021/04/23 10:52:36;;;;;;;;;;;;;;;22.88;17.37;100830.06;5354614;26;33939;-92
2021/04/23 10:55:07;;;;;;;;;;;;;;;23.22;16.89;100827.88;5372796;26;31990;-93
2021/04/23 10:57:54;;;;;;;;;;;;;;;23.31;16.93;100827.25;5354645;26;33483;-92
2021/04/23 11:00:32;;;;;;;;;;;;;;;23.75;16.17;100822.50;5355371;26;33237;-93
2021/04/23 11:17:31;;;;;;;;;;;;;;;23.91;15.64;100826.81;4563242;26;33166980;-87
2021/04/23 11:25:42;;;;;;;;;;;;;;;;;;;;;
2021/04/23 11:29:36;;;;;;;;;;;;;;;;;;;;;
2021/04/23 11:33:25;;;;;;;;;;;;;;;23.66;16.24;100817.81;5215861;27;34142;-86
2021/04/23 11:36:38;;;;;;;;;;;;;;;23.99;15.84;100825.28;5175037;27;34952;-86
2021/04/23 11:39:34;;;;;;;;;;;;;;;22.44;17.11;100812.56;5215090;27;34185;-86
2021/04/23 11:42:25;;;;;;;;;;;;;;;23.72;15.53;100824.53;5198565;27;33651;-85
2021/04/23 11:46:07;;;;;;;;;;;;;;;24.34;14.31;100826.41;5184468;27;33990;-89
2021/04/23 12:11:28;;;;;;;;;;;;;;;25.22;13.39;100809.31;5029369;28;31686;-85
2021/04/23 13:46:33;;;;;;;;;;;;;;;25.53;13.36;100785.69;5266895;26;899630;-89
2021/04/23 13:49:54;;;;;;;;;;;;;;;26.03;12.62;100772.00;5279055;27;33354;-87
2021/04/23 14:44:42;;;;;;;;;;;;;;;24.92;13.81;100759.19;5317568;26;777796;-93
2021/04/23 14:47:12;;;;;;;;;;;;;;;25.23;13.82;100764.84;5337206;26;32997;-92
2021/04/23 14:49:45;;;;;;;;;;;;;;;25.17;13.73;100761.69;5338383;26;33101;-93
2021/04/23 14:52:15;;;;;;;;;;;;;;;24.89;13.84;100754.94;5338224;26;33578;-92
2021/04/23 14:54:43;;;;;;;;;;;;;;;25.09;13.89;100763.22;5356103;26;32153;-93
2021/04/23 14:57:10;;;;;;;;;;;;;;;25.42;13.51;100759.84;5336120;26;32823;-92
2021/04/23 14:59:40;;;;;;;;;;;;;;;25.58;13.28;100754.16;5336803;26;34005;-93
2021/04/23 15:02:08;;;;;;;;;;;;;;;25.96;13.08;100755.59;5335961;26;33753;-92
2021/04/23 15:04:36;;;;;;;;;;;;;;;25.08;13.82;100767.72;5354415;26;33194;-93
2021/04/23 15:07:05;;;;;;;;;;;;;;;24.88;14.04;100752.41;5336841;26;32752;-94
2021/04/23 15:09:33;;;;;;;;;;;;;;;24.84;14.24;100757.09;5336085;26;33082;-92
2021/04/23 15:12:00;;;;;;;;;;;;;;;25.12;13.83;100763.84;5336347;26;33165;-93
2021/04/23 15:14:29;;;;;;;;;;;;;;;25.01;13.91;100762.00;5336894;26;32989;-92
2021/04/23 15:16:57;;;;;;;;;;;;;;;25.56;13.59;100760.59;5354595;26;33557;-94
2021/04/23 15:19:24;;;;;;;;;;;;;;;24.79;14.07;100767.25;5336171;26;33294;-92
2021/04/23 15:21:52;;;;;;;;;;;;;;;24.65;14.37;100771.78;5336377;26;33694;-92
2021/04/23 15:24:20;;;;;;;;;;;;;;;25.06;13.39;100763.47;5336097;26;31784;-93
2021/04/23 15:26:47;;;;;;;;;;;;;;;24.41;14.18;100768.22;5336107;26;32823;-94
2021/04/23 15:29:15;;;;;;;;;;;;;;;24.28;14.32;100771.78;5354347;26;33741;-93
2021/04/23 15:31:43;;;;;;;;;;;;;;;24.45;14.33;100767.91;5351588;26;33690;-93
2021/04/23 15:34:11;;;;;;;;;;;;;;;24.57;14.20;100771.50;5331312;26;32285;-93
2021/04/23 15:36:39;;;;;;;;;;;;;;;24.12;14.71;100761.41;5349931;26;33128;-93
2021/04/23 15:39:07;;;;;;;;;;;;;;;24.33;14.56;100769.66;5331456;26;32958;-94
2021/04/23 15:41:36;;;;;;;;;;;;;;;24.72;14.17;100774.00;5331799;26;32782;-93
2021/04/23 15:44:04;;;;;;;;;;;;;;;24.28;14.46;100768.28;5331628;26;32918;-91
2021/04/23 15:46:35;;;;;;;;;;;;;;;24.00;14.52;100771.12;5357672;26;35119;-93
2021/04/23 15:49:06;;;;;;;;;;;;;;;23.91;14.51;100766.44;5351394;26;34132;-92
2021/04/23 15:51:35;;;;;;;;;;;;;;;23.84;14.56;100763.34;5337011;26;32846;-92
2021/04/23 15:54:02;;;;;;;;;;;;;;;23.55;14.86;100761.84;5355695;26;33185;-93
2021/04/23 15:56:30;;;;;;;;;;;;;;;23.56;14.83;100764.44;5353782;26;33114;-93
2021/04/23 15:58:59;;;;;;;;;;;;;;;23.95;14.38;100756.44;5355300;26;34098;-93
2021/04/23 16:01:27;;;;;;;;;;;;;;;24.09;14.43;100760.75;5353323;26;33140;-93
2021/04/23 16:03:55;;;;;;;;;;;;;;;24.53;14.10;100756.69;5349988;26;32845;-93
2021/04/23 16:06:23;;;;;;;;;;;;;;;23.83;14.63;100750.16;5349663;26;33058;-93
2021/04/23 16:08:50;;;;;;;;;;;;;;;23.90;14.47;100750.59;5349631;26;34187;-92
2021/04/23 16:11:23;;;;;;;;;;;;;;;23.50;14.70;100751.53;5332806;26;33922;-94
2021/04/23 16:13:50;;;;;;;;;;;;;;;23.46;14.77;100753.56;5331052;26;33000;-93
2021/04/23 16:16:18;;;;;;;;;;;;;;;23.78;14.69;100760.25;5349262;26;34442;-93
2021/04/23 16:18:46;;;;;;;;;;;;;;;24.04;14.55;100762.91;5350031;26;34054;-92
2021/04/23 16:21:14;;;;;;;;;;;;;;;23.51;14.73;100751.44;5349411;26;32732;-93
2021/04/23 16:23:41;;;;;;;;;;;;;;;23.61;14.95;100756.97;5331222;26;31994;-93
2021/04/23 16:26:09;;;;;;;;;;;;;;;23.25;15.29;100755.03;5331573;26;34236;-93
2021/04/23 16:28:36;;;;;;;;;;;;;;;23.65;14.94;100752.28;5331312;26;32903;-93
2021/04/23 16:31:04;;;;;;;;;;;;;;;23.60;14.87;100755.28;5330763;26;33054;-93
2021/04/23 16:33:33;;;;;;;;;;;;;;;23.51;14.84;100743.47;5331284;26;31736;-93
2021/04/23 16:36:00;;;;;;;;;;;;;;;23.59;14.87;100745.59;5330958;26;32883;-92
2021/04/23 16:38:28;;;;;;;;;;;;;;;23.43;15.15;100753.78;5336654;26;32854;-93
2021/04/23 16:40:56;;;;;;;;;;;;;;;23.18;15.17;100755.44;5338587;26;33111;-93
2021/04/23 16:43:24;;;;;;;;;;;;;;;23.24;15.34;100759.53;5334703;26;32244;-92
2021/04/23 16:45:52;;;;;;;;;;;;;;;23.17;15.30;100759.09;5338437;26;33830;-93
2021/04/23 16:48:21;;;;;;;;;;;;;;;23.17;15.30;100763.53;5338837;26;32816;-93
2021/04/23 16:50:48;;;;;;;;;;;;;;;23.28;15.29;100766.31;5356280;26;33628;-92
2021/04/23 16:53:16;;;;;;;;;;;;;;;22.85;15.60;100769.16;5370146;26;33092;-93
2021/04/23 16:55:44;;;;;;;;;;;;;;;23.19;15.37;100761.63;5333061;26;33161;-93
2021/04/23 16:58:11;;;;;;;;;;;;;;;23.06;15.47;100764.22;5332477;26;33271;-92
2021/04/23 17:00:39;;;;;;;;;;;;;;;23.33;15.30;100758.87;5332976;26;32697;-93
2021/04/23 17:03:07;;;;;;;;;;;;;;;22.99;15.52;100774.41;5332510;26;33197;-93
2021/04/23 17:05:35;;;;;;;;;;;;;;;23.08;15.41;100769.44;5332462;26;33076;-95
2021/04/23 17:08:04;;;;;;;;;;;;;;;22.96;15.67;100779.94;5332935;26;33201;-93
2021/04/23 17:10:32;;;;;;;;;;;;;;;23.11;15.56;100775.41;5332652;26;33096;-92
2021/04/23 17:13:00;;;;;;;;;;;;;;;23.24;15.50;100777.25;5351691;26;33363;-93
2021/04/23 17:15:28;;;;;;;;;;;;;;;23.34;15.51;100773.03;5332781;26;32913;-92
2021/04/23 17:17:56;;;;;;;;;;;;;;;23.28;15.62;100774.31;5351050;26;33134;-92
2021/04/23 17:20:26;;;;;;;;;;;;;;;23.23;15.52;100772.87;5333243;26;32787;-93
2021/04/23 17:22:54;;;;;;;;;;;;;;;23.02;15.83;100781.34;5350860;26;32010;-92
2021/04/23 17:25:23;;;;;;;;;;;;;;;23.09;15.81;100779.97;5351093;26;33790;-94
2021/04/23 17:27:52;;;;;;;;;;;;;;;22.88;15.99;100782.25;5351060;26;33857;-91
2021/04/23 17:30:24;;;;;;;;;;;;;;;23.56;15.46;100782.19;5333092;26;32623;-93
2021/04/23 17:32:54;;;;;;;;;;;;;;;23.20;15.86;100779.28;5351086;26;32851;-92
2021/04/23 17:35:41;;;;;;;;;;;;;;;23.08;15.97;100780.06;5338691;26;32922;-92
2021/04/23 17:38:10;;;;;;;;;;;;;;;22.93;16.15;100776.63;5350782;26;32702;-92
2021/04/23 17:40:41;;;;;;;;;;;;;;;22.89;16.33;100781.28;5333096;26;32668;-92
2021/04/23 17:43:17;;;;;;;;;;;;;;;22.72;16.50;100784.22;5352405;26;32137;-92
2021/04/23 17:45:45;;;;;;;;;;;;;;;22.79;16.55;100788.19;5343943;26;32806;-92
2021/04/23 17:48:15;;;;;;;;;;;;;;;22.67;16.66;100789.84;5346082;26;33205;-93
2021/04/23 17:50:43;;;;;;;;;;;;;;;22.71;16.68;100787.81;5358015;26;32892;-93
2021/04/23 17:53:12;;;;;;;;;;;;;;;22.73;16.73;100792.06;5341006;26;32300;-94
2021/04/23 17:55:40;;;;;;;;;;;;;;;22.77;16.89;100796.22;5341304;26;32770;-93
2021/04/23 17:58:07;;;;;;;;;;;;;;;22.88;16.77;100800.84;5355074;26;33307;-91
2021/04/23 18:00:35;;;;;;;;;;;;;;;22.05;17.76;100799.03;5350960;26;32693;-92
2021/04/23 18:03:04;;;;;;;;;;;;;;;22.38;17.57;100797.88;5350579;26;32095;-93
2021/04/23 18:05:34;;;;;;;;;;;;;;;22.49;17.54;100802.50;5332110;26;32998;-92
2021/04/23 18:08:02;;;;;;;;;;;;;;;22.56;17.76;100801.12;5331371;26;33282;-92
2021/04/23 18:10:31;;;;;;;;;;;;;;;22.54;17.58;100805.72;5368466;26;32988;-92
2021/04/23 18:12:59;;;;;;;;;;;;;;;22.55;17.80;100810.06;5332077;26;31941;-92
2021/04/23 18:15:28;;;;;;;;;;;;;;;22.39;18.11;100809.34;5351076;26;33788;-93
2021/04/23 18:17:56;;;;;;;;;;;;;;;21.73;18.65;100812.47;5351853;26;33250;-92